Time;durP1;ratioP1;P1;durP2;ratioP2;P2;SDS_P1;SDS_P2;PMS_P1;PMS_P2;Temp;Humidity;BMP_temperature;BMP_pressure;BME280_temperature;BME280_humidity;BME280_pressure;Samples;Min_cycle;Max_cycle;Signal;HPM_P1;HPM_P2
2021/03/12 00:00:08;;;;;;;12.05;2.10;;;;;;;;;;5006773;28;21067;-57
2021/03/12 00:02:35;;;;;;;9.85;1.63;;;;;;;;;;5005917;28;21938;-61
2021/03/12 00:05:02;;;;;;;11.23;1.48;;;;;;;;;;5002287;28;20041;-58
2021/03/12 00:07:33;;;;;;;6.47;1.50;;;;;;;;;;5006938;28;20026;-58
2021/03/12 00:09:58;;;;;;;7.07;1.17;;;;;;;;;;4990010;28;20037;-58
2021/03/12 00:12:24;;;;;;;8.80;2.47;;;;;;;;;;4992611;28;20111;-58
2021/03/12 00:14:49;;;;;;;10.68;1.42;;;;;;;;;;5005043;28;20044;-59
2021/03/12 00:17:14;;;;;;;15.68;2.83;;;;;;;;;;5002654;28;20116;-59
2021/03/12 00:19:43;;;;;;;13.10;1.75;;;;;;;;;;5001014;28;20038;-58
2021/03/12 00:22:13;;;;;;;18.77;1.73;;;;;;;;;;5005169;28;20206;-61
2021/03/12 00:24:38;;;;;;;11.60;1.88;;;;;;;;;;4991541;28;20037;-58
2021/03/12 00:27:04;;;;;;;11.50;1.75;;;;;;;;;;5004559;28;20033;-59
2021/03/12 00:29:32;;;;;;;9.88;1.00;;;;;;;;;;4993106;28;20140;-58
2021/03/12 00:31:59;;;;;;;10.82;1.90;;;;;;;;;;5004008;28;21198;-58
2021/03/12 00:34:27;;;;;;;7.32;1.70;;;;;;;;;;5002835;28;20688;-59
2021/03/12 00:36:52;;;;;;;11.85;1.80;;;;;;;;;;5003632;28;20122;-59
2021/03/12 00:39:18;;;;;;;12.10;2.00;;;;;;;;;;5001755;28;20042;-58
2021/03/12 00:41:43;;;;;;;18.60;1.90;;;;;;;;;;4992129;28;20033;-59
2021/03/12 00:44:11;;;;;;;17.50;2.13;;;;;;;;;;5005559;28;20034;-60
2021/03/12 00:46:36;;;;;;;10.85;2.65;;;;;;;;;;5005578;28;20033;-59
2021/03/12 00:49:04;;;;;;;14.77;1.88;;;;;;;;;;4976415;28;20037;-60
2021/03/12 00:51:30;;;;;;;8.07;1.48;;;;;;;;;;5002547;28;20905;-59
2021/03/12 00:54:03;;;;;;;3.03;1.67;;;;;;;;;;5002578;28;20041;-59
2021/03/12 00:56:29;;;;;;;16.08;1.77;;;;;;;;;;5000933;28;20041;-59
2021/03/12 00:58:54;;;;;;;14.52;2.78;;;;;;;;;;5004979;28;20056;-60
2021/03/12 01:01:24;;;;;;;9.00;1.60;;;;;;;;;;4986894;28;20030;-58
2021/03/12 01:03:55;;;;;;;7.80;1.42;;;;;;;;;;4973590;28;20061;-58
2021/03/12 01:06:20;;;;;;;18.17;2.90;;;;;;;;;;4999955;28;20036;-59
2021/03/12 01:08:48;;;;;;;8.02;1.75;;;;;;;;;;5005094;28;20102;-59
2021/03/12 01:11:15;;;;;;;6.70;1.77;;;;;;;;;;4988414;28;20033;-59
2021/03/12 01:13:41;;;;;;;19.35;2.00;;;;;;;;;;5003867;28;20413;-57
2021/03/12 01:16:10;;;;;;;14.10;2.08;;;;;;;;;;4991165;28;20037;-60
2021/03/12 01:18:35;;;;;;;21.13;1.98;;;;;;;;;;5002908;28;20049;-59
2021/03/12 01:21:03;;;;;;;19.85;1.80;;;;;;;;;;4990533;28;20034;-59
2021/03/12 01:23:33;;;;;;;15.48;2.05;;;;;;;;;;4992530;28;20040;-58
2021/03/12 01:25:59;;;;;;;2.85;1.45;;;;;;;;;;5004519;28;21013;-63
2021/03/12 01:28:29;;;;;;;11.73;2.17;;;;;;;;;;4989255;28;20111;-61
2021/03/12 01:30:55;;;;;;;15.68;2.60;;;;;;;;;;4990061;28;20407;-60
2021/03/12 01:33:20;;;;;;;10.48;2.60;;;;;;;;;;5004307;28;20045;-61
2021/03/12 01:35:48;;;;;;;18.27;2.08;;;;;;;;;;4992474;28;20041;-59
2021/03/12 01:38:18;;;;;;;15.35;2.15;;;;;;;;;;5001352;28;20037;-60
2021/03/12 01:40:45;;;;;;;6.93;1.83;;;;;;;;;;5002385;28;20815;-59
2021/03/12 01:43:11;;;;;;;15.25;2.13;;;;;;;;;;5003976;28;20146;-61
2021/03/12 01:45:38;;;;;;;12.18;2.08;;;;;;;;;;4998809;28;20041;-60
2021/03/12 01:48:09;;;;;;;13.38;2.83;;;;;;;;;;4991181;28;20667;-58
2021/03/12 01:50:40;;;;;;;10.45;1.73;;;;;;;;;;5002411;28;20034;-60
2021/03/12 01:53:17;;;;;;;12.10;2.15;;;;;;;;;;4972780;28;20057;-59
2021/03/12 01:55:43;;;;;;;6.55;1.83;;;;;;;;;;4988381;28;20045;-58
2021/03/12 01:58:13;;;;;;;11.02;1.85;;;;;;;;;;4986860;28;20048;-59
2021/03/12 02:00:44;;;;;;;14.85;2.17;;;;;;;;;;5002865;28;20041;-59
2021/03/12 02:03:13;;;;;;;18.67;2.30;;;;;;;;;;5000521;28;20040;-58
2021/03/12 02:05:39;;;;;;;12.40;2.15;;;;;;;;;;4998823;28;20033;-59
2021/03/12 02:08:07;;;;;;;13.77;1.83;;;;;;;;;;4998591;28;20638;-58
2021/03/12 02:10:33;;;;;;;25.48;2.17;;;;;;;;;;4989149;28;20048;-59
2021/03/12 02:13:17;;;;;;;16.38;2.47;;;;;;;;;;5003233;28;20435;-59
2021/03/12 02:15:48;;;;;;;18.30;2.10;;;;;;;;;;5002843;28;20037;-60
2021/03/12 02:18:22;;;;;;;13.57;2.45;;;;;;;;;;5002869;28;20417;-62
2021/03/12 02:20:52;;;;;;;22.73;3.00;;;;;;;;;;5003737;28;20033;-59
2021/03/12 02:23:23;;;;;;;8.95;2.35;;;;;;;;;;5003502;28;20462;-59
2021/03/12 02:26:00;;;;;;;6.22;1.50;;;;;;;;;;4999630;28;20140;-59
2021/03/12 02:28:31;;;;;;;16.98;1.90;;;;;;;;;;5005275;28;20763;-60
2021/03/12 02:30:57;;;;;;;13.93;1.95;;;;;;;;;;5003264;28;20041;-60
2021/03/12 02:33:23;;;;;;;18.50;2.78;;;;;;;;;;4985546;28;20057;-60
2021/03/12 02:35:54;;;;;;;9.38;2.20;;;;;;;;;;4989297;28;20124;-59
2021/03/12 02:38:24;;;;;;;17.63;2.22;;;;;;;;;;5001755;28;20107;-59
2021/03/12 02:40:53;;;;;;;19.83;1.23;;;;;;;;;;4984401;28;20060;-60
2021/03/12 02:43:21;;;;;;;5.90;1.70;;;;;;;;;;4986863;28;20084;-60
2021/03/12 02:45:48;;;;;;;9.23;1.55;;;;;;;;;;4999240;28;20040;-60
2021/03/12 02:48:16;;;;;;;11.10;2.33;;;;;;;;;;5002397;28;20079;-60
2021/03/12 02:50:47;;;;;;;19.38;2.30;;;;;;;;;;5001866;28;20041;-61
2021/03/12 02:53:17;;;;;;;11.52;2.42;;;;;;;;;;4983974;28;20049;-61
2021/03/12 02:55:42;;;;;;;9.82;1.33;;;;;;;;;;4997850;28;20038;-60
2021/03/12 02:58:16;;;;;;;7.03;1.17;;;;;;;;;;5001050;28;20092;-59
2021/03/12 03:00:44;;;;;;;11.00;1.85;;;;;;;;;;5002392;28;20069;-58
2021/03/12 03:03:11;;;;;;;15.35;2.47;;;;;;;;;;5002721;28;20908;-60
2021/03/12 03:05:39;;;;;;;8.60;2.22;;;;;;;;;;5003001;28;20049;-59
2021/03/12 03:08:08;;;;;;;8.43;2.50;;;;;;;;;;4981933;28;20384;-59
2021/03/12 03:10:35;;;;;;;8.45;1.90;;;;;;;;;;4968165;28;20705;-60
2021/03/12 03:13:04;;;;;;;11.50;1.98;;;;;;;;;;5001611;28;20038;-58
2021/03/12 03:15:30;;;;;;;8.60;2.10;;;;;;;;;;4997655;28;20396;-59
2021/03/12 03:17:58;;;;;;;14.50;2.17;;;;;;;;;;5000668;28;20029;-61
2021/03/12 03:20:24;;;;;;;6.80;1.83;;;;;;;;;;5002984;28;20027;-60
2021/03/12 03:22:50;;;;;;;15.18;2.58;;;;;;;;;;5006075;28;20040;-59
2021/03/12 03:25:18;;;;;;;16.05;1.88;;;;;;;;;;4974317;28;20029;-59
2021/03/12 03:27:44;;;;;;;8.48;2.00;;;;;;;;;;4990789;28;20174;-60
2021/03/12 03:30:11;;;;;;;4.90;1.80;;;;;;;;;;5001491;28;20025;-59
2021/03/12 03:32:39;;;;;;;11.80;2.35;;;;;;;;;;4998497;28;20033;-60
2021/03/12 03:35:08;;;;;;;16.55;3.33;;;;;;;;;;5005492;28;20052;-60
2021/03/12 03:37:34;;;;;;;7.22;1.48;;;;;;;;;;5004433;28;20034;-60
2021/03/12 03:40:07;;;;;;;21.45;2.33;;;;;;;;;;5003969;28;20400;-59
2021/03/12 03:42:37;;;;;;;8.75;1.40;;;;;;;;;;5002455;28;20155;-60
2021/03/12 03:45:04;;;;;;;8.68;1.70;;;;;;;;;;4987834;28;20025;-60
2021/03/12 03:47:30;;;;;;;12.80;1.77;;;;;;;;;;4989986;28;20053;-58
2021/03/12 03:49:56;;;;;;;7.25;1.30;;;;;;;;;;4991848;28;20112;-58
2021/03/12 03:52:24;;;;;;;8.82;1.77;;;;;;;;;;5004834;28;20424;-60
2021/03/12 03:54:53;;;;;;;13.73;1.85;;;;;;;;;;5003756;28;20049;-59
2021/03/12 03:57:22;;;;;;;8.55;1.88;;;;;;;;;;5002639;28;20033;-59
2021/03/12 03:59:50;;;;;;;6.63;1.05;;;;;;;;;;4991453;28;20022;-59
2021/03/12 04:02:17;;;;;;;8.90;1.42;;;;;;;;;;5003389;28;20030;-59
2021/03/12 04:04:51;;;;;;;13.13;2.20;;;;;;;;;;4990573;28;20056;-59
2021/03/12 04:07:17;;;;;;;11.95;1.73;;;;;;;;;;5004099;28;20026;-59
2021/03/12 04:09:45;;;;;;;9.63;3.45;;;;;;;;;;4988183;28;20041;-59
2021/03/12 04:12:11;;;;;;;11.10;1.75;;;;;;;;;;4985173;28;20900;-59
2021/03/12 04:14:43;;;;;;;17.70;2.33;;;;;;;;;;4989851;28;20029;-59
2021/03/12 04:17:11;;;;;;;13.27;1.42;;;;;;;;;;4995978;28;20090;-59
2021/03/12 04:19:39;;;;;;;8.52;1.67;;;;;;;;;;5003332;28;20033;-59
2021/03/12 04:22:08;;;;;;;7.93;1.40;;;;;;;;;;4991382;28;20591;-59
2021/03/12 04:24:37;;;;;;;11.75;2.03;;;;;;;;;;4986769;28;20496;-59
2021/03/12 04:27:03;;;;;;;13.52;1.70;;;;;;;;;;5002794;28;20168;-59
2021/03/12 04:29:31;;;;;;;8.00;1.88;;;;;;;;;;4986295;28;20040;-59
2021/03/12 04:31:59;;;;;;;9.77;1.50;;;;;;;;;;5001189;28;20077;-59
2021/03/12 04:34:27;;;;;;;12.52;1.42;;;;;;;;;;4996885;28;20497;-60
2021/03/12 04:36:56;;;;;;;4.75;1.02;;;;;;;;;;4968129;28;20034;-59
2021/03/12 04:39:24;;;;;;;8.07;1.10;;;;;;;;;;4983873;28;20042;-59
2021/03/12 04:41:54;;;;;;;13.52;1.70;;;;;;;;;;4950817;28;20030;-59
2021/03/12 04:44:22;;;;;;;15.50;1.60;;;;;;;;;;4981980;28;21076;-59
2021/03/12 04:46:53;;;;;;;15.20;1.73;;;;;;;;;;4966519;28;20030;-60
2021/03/12 04:49:18;;;;;;;8.10;1.25;;;;;;;;;;4970862;28;20034;-61
2021/03/12 04:51:46;;;;;;;16.33;2.22;;;;;;;;;;4980200;28;20038;-59
2021/03/12 04:54:16;;;;;;;13.23;1.60;;;;;;;;;;4982844;28;20077;-60
2021/03/12 04:56:41;;;;;;;8.30;1.48;;;;;;;;;;4965116;28;20481;-59
2021/03/12 04:59:07;;;;;;;9.70;1.40;;;;;;;;;;4960485;28;20033;-60
2021/03/12 05:01:36;;;;;;;9.10;1.95;;;;;;;;;;4964521;28;20033;-60
2021/03/12 05:04:04;;;;;;;9.55;1.80;;;;;;;;;;4964678;28;20546;-59
2021/03/12 05:06:33;;;;;;;4.05;1.15;;;;;;;;;;4969571;28;20033;-60
2021/03/12 05:09:00;;;;;;;9.05;1.42;;;;;;;;;;4948974;28;20029;-59
2021/03/12 05:11:26;;;;;;;11.10;2.13;;;;;;;;;;4981379;28;20509;-60
2021/03/12 05:13:54;;;;;;;11.75;1.98;;;;;;;;;;4956694;28;20022;-60
2021/03/12 05:16:22;;;;;;;8.32;1.63;;;;;;;;;;4951777;28;22167;-59
2021/03/12 05:18:52;;;;;;;8.88;1.30;;;;;;;;;;4938377;28;20045;-60
2021/03/12 05:21:20;;;;;;;7.10;1.20;;;;;;;;;;4966654;28;20066;-59
2021/03/12 05:23:47;;;;;;;11.75;1.70;;;;;;;;;;4996066;28;20046;-59
2021/03/12 05:26:15;;;;;;;12.25;1.92;;;;;;;;;;4983019;28;20061;-60
2021/03/12 05:28:41;;;;;;;19.70;2.10;;;;;;;;;;4954117;28;20097;-59
2021/03/12 05:31:11;;;;;;;10.07;1.30;;;;;;;;;;4965563;28;20037;-60
2021/03/12 05:33:37;;;;;;;8.10;1.67;;;;;;;;;;4977654;28;20050;-60
2021/03/12 05:36:07;;;;;;;9.30;1.73;;;;;;;;;;4972783;28;20490;-60
2021/03/12 05:38:34;;;;;;;13.38;1.92;;;;;;;;;;5002961;28;20044;-61
2021/03/12 05:41:03;;;;;;;11.70;1.40;;;;;;;;;;5002437;28;20032;-60
2021/03/12 05:43:31;;;;;;;10.23;1.48;;;;;;;;;;5003527;28;20784;-59
2021/03/12 05:46:00;;;;;;;6.88;1.27;;;;;;;;;;4980984;28;20051;-59
2021/03/12 05:48:25;;;;;;;12.57;1.77;;;;;;;;;;5002145;28;20156;-59
2021/03/12 05:50:51;;;;;;;6.95;1.38;;;;;;;;;;4992027;28;20145;-59
2021/03/12 05:53:19;;;;;;;8.73;1.40;;;;;;;;;;5003944;28;20036;-60
2021/03/12 05:55:44;;;;;;;6.65;1.73;;;;;;;;;;4987928;28;20038;-60
2021/03/12 05:58:10;;;;;;;5.85;1.77;;;;;;;;;;4986042;28;20050;-60
2021/03/12 06:00:35;;;;;;;7.30;1.50;;;;;;;;;;4972934;28;20041;-60
2021/03/12 06:03:03;;;;;;;5.95;1.77;;;;;;;;;;5002322;28;20025;-61
2021/03/12 06:05:31;;;;;;;4.40;1.02;;;;;;;;;;4986689;28;22179;-61
2021/03/12 06:07:59;;;;;;;7.15;1.58;;;;;;;;;;4987677;28;20173;-59
2021/03/12 06:10:26;;;;;;;13.57;1.40;;;;;;;;;;5001403;28;20025;-63
2021/03/12 06:12:55;;;;;;;9.07;1.20;;;;;;;;;;4987516;28;20472;-63
2021/03/12 06:15:31;;;;;;;11.15;1.65;;;;;;;;;;4972332;28;20034;-60
2021/03/12 06:17:57;;;;;;;7.63;1.38;;;;;;;;;;5002728;28;20513;-61
2021/03/12 06:20:23;;;;;;;12.20;2.00;;;;;;;;;;4987102;28;20084;-61
2021/03/12 06:22:52;;;;;;;14.88;1.60;;;;;;;;;;5002022;28;20067;-61
2021/03/12 06:25:22;;;;;;;12.93;2.13;;;;;;;;;;4980407;28;20040;-60
2021/03/12 06:27:52;;;;;;;17.42;2.72;;;;;;;;;;5002293;28;20117;-60
2021/03/12 06:30:19;;;;;;;6.05;1.55;;;;;;;;;;4997396;28;20934;-61
2021/03/12 06:32:48;;;;;;;12.60;1.50;;;;;;;;;;5000973;28;20642;-62
2021/03/12 06:35:15;;;;;;;6.25;1.23;;;;;;;;;;5002460;28;20124;-61
2021/03/12 06:37:46;;;;;;;15.82;2.72;;;;;;;;;;4969645;28;20036;-60
2021/03/12 06:40:17;;;;;;;20.65;1.98;;;;;;;;;;4986122;28;20032;-60
2021/03/12 06:43:01;;;;;;;13.85;1.70;;;;;;;;;;4985972;28;20041;-60
2021/03/12 06:45:29;;;;;;;11.45;1.98;;;;;;;;;;4981370;28;20017;-61
2021/03/12 06:48:15;;;;;;;10.63;1.30;;;;;;;;;;4968771;28;20959;-59
2021/03/12 06:50:44;;;;;;;15.93;1.70;;;;;;;;;;4983862;28;20029;-59
2021/03/12 06:53:32;;;;;;;8.70;1.60;;;;;;;;;;4995134;28;20036;-60
2021/03/12 06:56:07;;;;;;;6.20;1.33;;;;;;;;;;5000758;28;20722;-60
2021/03/12 06:58:33;;;;;;;15.40;1.75;;;;;;;;;;5000670;28;20033;-60
2021/03/12 07:00:59;;;;;;;7.55;1.48;;;;;;;;;;4973286;28;20034;-60
2021/03/12 07:03:34;;;;;;;12.85;2.05;;;;;;;;;;5003063;28;20037;-59
2021/03/12 07:06:10;;;;;;;9.55;1.55;;;;;;;;;;4971548;28;20033;-60
2021/03/12 07:08:42;;;;;;;13.50;3.05;;;;;;;;;;5001156;28;20610;-59
2021/03/12 07:11:17;;;;;;;14.23;2.40;;;;;;;;;;4998676;28;20030;-59
2021/03/12 07:13:42;;;;;;;11.93;1.60;;;;;;;;;;4986701;28;20758;-60
2021/03/12 07:16:10;;;;;;;12.70;1.80;;;;;;;;;;4955946;28;20057;-60
2021/03/12 07:18:35;;;;;;;10.68;1.20;;;;;;;;;;4983743;28;20129;-60
2021/03/12 07:21:02;;;;;;;9.75;1.42;;;;;;;;;;4997877;28;20029;-59
2021/03/12 07:23:28;;;;;;;13.98;2.10;;;;;;;;;;5002014;28;20113;-60
2021/03/12 07:25:55;;;;;;;15.05;2.13;;;;;;;;;;4989317;28;20044;-61
2021/03/12 07:28:25;;;;;;;10.70;2.33;;;;;;;;;;4984502;28;20513;-60
2021/03/12 07:30:54;;;;;;;17.15;1.98;;;;;;;;;;4987339;28;20152;-62
2021/03/12 07:33:28;;;;;;;7.15;1.70;;;;;;;;;;4997222;28;20038;-61
2021/03/12 07:35:57;;;;;;;11.70;1.77;;;;;;;;;;4978546;28;20068;-59
2021/03/12 07:38:22;;;;;;;20.00;2.55;;;;;;;;;;4964372;28;20038;-61
2021/03/12 07:40:52;;;;;;;15.05;1.90;;;;;;;;;;4978877;28;20034;-61
2021/03/12 07:43:18;;;;;;;19.23;2.70;;;;;;;;;;4980406;28;20033;-60
2021/03/12 07:45:47;;;;;;;9.60;1.83;;;;;;;;;;4963053;28;20022;-60
2021/03/12 07:48:14;;;;;;;15.80;2.53;;;;;;;;;;4966988;28;20042;-60
2021/03/12 07:50:40;;;;;;;15.60;2.58;;;;;;;;;;4980469;28;20044;-62
2021/03/12 07:53:13;;;;;;;17.65;2.35;;;;;;;;;;4976155;28;20034;-60
2021/03/12 07:55:38;;;;;;;18.17;2.83;;;;;;;;;;4966856;28;20080;-58
2021/03/12 07:58:07;;;;;;;17.05;3.30;;;;;;;;;;4964616;28;20038;-59
2021/03/12 08:00:51;;;;;;;15.88;2.35;;;;;;;;;;4965870;28;20736;-59
2021/03/12 08:03:41;;;;;;;13.98;2.92;;;;;;;;;;4963649;28;20059;-59
2021/03/12 08:06:21;;;;;;;10.68;1.92;;;;;;;;;;4981013;28;20033;-59
2021/03/12 08:08:47;;;;;;;24.35;2.53;;;;;;;;;;4981521;28;20058;-59
2021/03/12 08:11:27;;;;;;;11.40;1.88;;;;;;;;;;4966483;28;20056;-58
2021/03/12 08:14:10;;;;;;;12.40;2.42;;;;;;;;;;4964803;28;20030;-59
2021/03/12 08:16:39;;;;;;;11.02;2.13;;;;;;;;;;4964552;28;20034;-60
2021/03/12 08:19:24;;;;;;;12.40;2.78;;;;;;;;;;4971788;28;20042;-60
2021/03/12 08:21:52;;;;;;;14.70;2.40;;;;;;;;;;4982291;28;20030;-61
2021/03/12 08:24:36;;;;;;;18.25;2.30;;;;;;;;;;4980059;28;20034;-59
2021/03/12 08:27:02;;;;;;;15.98;2.67;;;;;;;;;;4979284;28;20090;-59
2021/03/12 08:29:29;;;;;;;17.98;3.08;;;;;;;;;;4996902;28;20042;-60
2021/03/12 08:31:55;;;;;;;19.35;2.42;;;;;;;;;;4981573;28;20253;-61
2021/03/12 08:34:37;;;;;;;21.38;3.47;;;;;;;;;;4979932;28;22297;-59
2021/03/12 08:37:23;;;;;;;11.55;2.00;;;;;;;;;;4981591;28;20053;-60
2021/03/12 08:40:08;;;;;;;19.27;2.92;;;;;;;;;;4983360;28;20751;-59
2021/03/12 08:42:34;;;;;;;;;;;;;;;;;;4982144;28;20042;-61
2021/03/12 08:45:01;;;;;;;13.80;1.73;;;;;;;;;;4968441;28;19980;-60
2021/03/12 08:47:30;;;;;;;15.40;2.15;;;;;;;;;;4967829;28;20531;-60
2021/03/12 08:49:58;;;;;;;13.38;2.20;;;;;;;;;;4982768;28;20038;-60
2021/03/12 08:52:24;;;;;;;12.48;1.55;;;;;;;;;;4982783;28;20116;-60
2021/03/12 08:54:52;;;;;;;14.32;1.98;;;;;;;;;;4982736;28;20038;-61
2021/03/12 08:57:23;;;;;;;8.77;1.58;;;;;;;;;;4999571;28;20490;-60
2021/03/12 09:00:03;;;;;;;13.68;2.00;;;;;;;;;;4984229;28;20042;-62
2021/03/12 09:02:28;;;;;;;12.13;1.70;;;;;;;;;;4968538;28;20064;-60
2021/03/12 09:04:56;;;;;;;17.58;1.83;;;;;;;;;;4980064;28;20117;-60
2021/03/12 09:07:22;;;;;;;16.50;2.35;;;;;;;;;;4983003;28;20169;-60
2021/03/12 09:09:52;;;;;;;15.65;2.10;;;;;;;;;;4972326;28;20030;-59
2021/03/12 09:12:17;;;;;;;13.27;2.13;;;;;;;;;;4996406;28;20041;-60
2021/03/12 09:14:45;;;;;;;16.48;2.10;;;;;;;;;;4953117;28;20097;-60
2021/03/12 09:17:13;;;;;;;12.43;1.63;;;;;;;;;;4984211;28;20079;-59
2021/03/12 09:19:38;;;;;;;16.67;2.88;;;;;;;;;;4964782;28;20168;-60
2021/03/12 09:22:06;;;;;;;9.10;2.15;;;;;;;;;;4983748;28;20034;-59
2021/03/12 09:24:31;;;;;;;10.93;2.15;;;;;;;;;;4968431;28;20034;-60
2021/03/12 09:27:04;;;;;;;15.32;2.40;;;;;;;;;;4982796;28;20064;-60
2021/03/12 09:29:37;;;;;;;17.15;2.45;;;;;;;;;;4956686;28;20034;-61
2021/03/12 09:32:03;;;;;;;8.80;1.98;;;;;;;;;;4967157;28;20152;-60
2021/03/12 09:34:31;;;;;;;8.48;1.38;;;;;;;;;;4980398;28;20059;-60
2021/03/12 09:36:58;;;;;;;13.65;1.63;;;;;;;;;;5000715;28;20100;-61
2021/03/12 09:39:29;;;;;;;17.00;2.08;;;;;;;;;;5005134;28;20556;-61
2021/03/12 09:41:59;;;;;;;20.48;2.60;;;;;;;;;;5002949;28;20777;-59
2021/03/12 09:44:27;;;;;;;16.95;2.25;;;;;;;;;;5003412;28;20156;-58
2021/03/12 09:46:59;;;;;;;17.98;2.25;;;;;;;;;;5000857;28;20034;-59
2021/03/12 09:49:32;;;;;;;15.98;2.30;;;;;;;;;;5004909;28;20040;-60
2021/03/12 09:52:07;;;;;;;18.35;3.38;;;;;;;;;;5002635;28;20045;-60
2021/03/12 09:54:32;;;;;;;16.27;2.38;;;;;;;;;;4988580;28;20029;-61
2021/03/12 09:56:58;;;;;;;15.90;2.75;;;;;;;;;;4984528;28;21075;-60
2021/03/12 09:59:30;;;;;;;9.85;1.98;;;;;;;;;;5004561;28;20104;-61
2021/03/12 10:02:06;;;;;;;11.90;1.70;;;;;;;;;;5001619;28;20037;-60
2021/03/12 10:04:38;;;;;;;16.83;2.67;;;;;;;;;;5003741;28;20029;-60
2021/03/12 10:07:08;;;;;;;12.75;2.42;;;;;;;;;;5002522;28;20148;-60
2021/03/12 10:09:34;;;;;;;12.48;1.73;;;;;;;;;;5004116;28;20036;-59
2021/03/12 10:12:00;;;;;;;6.53;1.33;;;;;;;;;;4985159;28;20073;-58
2021/03/12 10:14:28;;;;;;;11.45;1.85;;;;;;;;;;5001005;28;20048;-57
2021/03/12 10:17:16;;;;;;;13.40;1.85;;;;;;;;;;4987404;28;20053;-57
2021/03/12 10:19:47;;;;;;;6.63;1.77;;;;;;;;;;4988291;28;20193;-57
2021/03/12 10:22:33;;;;;;;10.15;1.95;;;;;;;;;;4989752;28;20052;-57
2021/03/12 10:25:07;;;;;;;13.07;2.05;;;;;;;;;;5004274;28;21066;-57
2021/03/12 10:27:39;;;;;;;8.98;1.90;;;;;;;;;;4997500;28;20061;-57
2021/03/12 10:30:09;;;;;;;13.60;2.45;;;;;;;;;;4986848;28;20084;-58
2021/03/12 10:32:39;;;;;;;10.95;2.03;;;;;;;;;;4986524;28;20033;-58
2021/03/12 10:35:16;;;;;;;14.45;2.90;;;;;;;;;;4984198;28;20054;-57
2021/03/12 10:37:42;;;;;;;19.80;2.45;;;;;;;;;;4958456;28;20038;-57
2021/03/12 10:40:10;;;;;;;11.25;2.50;;;;;;;;;;4982079;28;20069;-57
2021/03/12 10:42:39;;;;;;;20.92;2.72;;;;;;;;;;4968779;28;20064;-58
2021/03/12 10:45:06;;;;;;;18.90;2.67;;;;;;;;;;4979337;28;20030;-57
2021/03/12 10:47:34;;;;;;;14.85;2.85;;;;;;;;;;4981600;28;21200;-58
2021/03/12 10:50:17;;;;;;;9.98;2.70;;;;;;;;;;4964592;28;20102;-59
2021/03/12 10:52:45;;;;;;;12.98;2.50;;;;;;;;;;4968134;28;20030;-59
2021/03/12 10:55:11;;;;;;;16.30;2.38;;;;;;;;;;4967038;28;20159;-57
2021/03/12 10:57:46;;;;;;;18.33;2.95;;;;;;;;;;4980112;28;20902;-58
2021/03/12 11:00:22;;;;;;;20.25;3.03;;;;;;;;;;4969589;28;20125;-59
2021/03/12 11:02:50;;;;;;;15.30;3.10;;;;;;;;;;4963098;28;20037;-57
2021/03/12 11:05:17;;;;;;;26.73;3.47;;;;;;;;;;4997675;28;20041;-58
2021/03/12 11:07:43;;;;;;;14.70;2.88;;;;;;;;;;4979234;28;20030;-58
2021/03/12 11:10:11;;;;;;;15.75;2.42;;;;;;;;;;4979852;28;20938;-57
2021/03/12 11:12:39;;;;;;;25.33;3.63;;;;;;;;;;4981383;28;20105;-57
2021/03/12 11:15:06;;;;;;;34.00;3.83;;;;;;;;;;4982351;28;20034;-57
2021/03/12 11:17:34;;;;;;;28.00;2.67;;;;;;;;;;4980012;28;20025;-57
2021/03/12 11:19:59;;;;;;;8.63;1.88;;;;;;;;;;4980695;28;20042;-57
2021/03/12 11:22:27;;;;;;;10.93;2.35;;;;;;;;;;4964321;28;20058;-57
2021/03/12 11:24:55;;;;;;;14.57;2.90;;;;;;;;;;4977068;28;20124;-57
2021/03/12 11:27:20;;;;;;;23.98;2.85;;;;;;;;;;4974275;28;20409;-57
2021/03/12 11:29:45;;;;;;;17.33;2.95;;;;;;;;;;4952300;28;20054;-57
2021/03/12 11:32:11;;;;;;;14.07;2.55;;;;;;;;;;4982377;28;20126;-57
2021/03/12 11:34:37;;;;;;;15.90;2.15;;;;;;;;;;4968759;28;20569;-57
2021/03/12 11:37:02;;;;;;;10.98;2.63;;;;;;;;;;4969216;28;20571;-57
2021/03/12 11:39:28;;;;;;;9.13;1.73;;;;;;;;;;4964833;28;20053;-57
2021/03/12 11:41:53;;;;;;;8.10;1.63;;;;;;;;;;4969850;28;20065;-58
2021/03/12 11:44:19;;;;;;;12.63;2.10;;;;;;;;;;4984022;28;20496;-56
2021/03/12 11:46:44;;;;;;;4.82;1.40;;;;;;;;;;4968812;28;20026;-57
2021/03/12 11:49:10;;;;;;;5.20;1.95;;;;;;;;;;4986263;28;20033;-58
2021/03/12 11:51:38;;;;;;;11.50;2.13;;;;;;;;;;4971027;28;20053;-59
2021/03/12 11:54:06;;;;;;;6.05;1.70;;;;;;;;;;4966558;28;20085;-57
2021/03/12 11:56:32;;;;;;;9.93;2.40;;;;;;;;;;4956788;28;20029;-57
2021/03/12 11:58:59;;;;;;;15.88;2.30;;;;;;;;;;4983998;28;20494;-58
2021/03/12 12:01:32;;;;;;;7.53;2.15;;;;;;;;;;4983953;28;20022;-56
2021/03/12 12:04:00;;;;;;;8.40;2.33;;;;;;;;;;4984644;28;20664;-57
2021/03/12 12:06:28;;;;;;;8.10;2.42;;;;;;;;;;4972033;28;20038;-57
2021/03/12 12:08:53;;;;;;;10.77;2.60;;;;;;;;;;4967597;28;20519;-57
2021/03/12 12:11:19;;;;;;;16.33;2.80;;;;;;;;;;4979546;28;20034;-57
2021/03/12 12:13:47;;;;;;;11.73;2.30;;;;;;;;;;4988802;28;20061;-58
2021/03/12 12:16:17;;;;;;;11.65;2.63;;;;;;;;;;4991254;28;20026;-58
2021/03/12 12:18:43;;;;;;;7.13;2.22;;;;;;;;;;5003518;28;20037;-57
2021/03/12 12:21:08;;;;;;;6.43;1.80;;;;;;;;;;4996151;28;20041;-57
2021/03/12 12:23:37;;;;;;;6.47;1.85;;;;;;;;;;5002340;28;20397;-58
2021/03/12 12:26:02;;;;;;;7.82;1.80;;;;;;;;;;5002834;28;20127;-57
2021/03/12 12:28:27;;;;;;;8.25;2.10;;;;;;;;;;5006880;28;20750;-58
2021/03/12 12:30:53;;;;;;;6.20;1.83;;;;;;;;;;5005205;28;20439;-57
2021/03/12 12:33:18;;;;;;;10.27;2.05;;;;;;;;;;4988899;28;20521;-58
2021/03/12 12:35:46;;;;;;;19.15;1.90;;;;;;;;;;4983806;28;20430;-57
2021/03/12 12:38:12;;;;;;;9.25;1.40;;;;;;;;;;5014748;28;20132;-58
2021/03/12 12:40:40;;;;;;;11.75;2.05;;;;;;;;;;4999956;28;20045;-57
2021/03/12 12:43:11;;;;;;;8.48;1.45;;;;;;;;;;5016366;28;20450;-58
2021/03/12 12:45:41;;;;;;;7.43;1.90;;;;;;;;;;5000124;28;20479;-57
2021/03/12 12:48:09;;;;;;;9.80;1.90;;;;;;;;;;5012656;28;20028;-58
2021/03/12 12:50:37;;;;;;;13.45;1.77;;;;;;;;;;5014050;28;20128;-59
2021/03/12 12:53:03;;;;;;;7.35;1.70;;;;;;;;;;5016113;28;20113;-58
2021/03/12 12:55:29;;;;;;;10.30;1.95;;;;;;;;;;4994945;28;20036;-58
2021/03/12 12:57:54;;;;;;;14.15;2.42;;;;;;;;;;4993770;28;20519;-58
2021/03/12 13:00:21;;;;;;;9.70;1.92;;;;;;;;;;5009878;28;20052;-58
2021/03/12 13:02:49;;;;;;;8.88;1.70;;;;;;;;;;5007930;28;20045;-60
2021/03/12 13:05:14;;;;;;;15.27;1.85;;;;;;;;;;4982109;28;20029;-57
2021/03/12 13:07:40;;;;;;;8.40;1.63;;;;;;;;;;4988690;28;20040;-58
2021/03/12 13:10:08;;;;;;;15.60;2.05;;;;;;;;;;5012767;28;20030;-57
2021/03/12 13:12:34;;;;;;;14.40;2.65;;;;;;;;;;4986808;28;20040;-57
2021/03/12 13:15:05;;;;;;;8.15;1.80;;;;;;;;;;4997383;28;20058;-59
2021/03/12 13:17:34;;;;;;;3.13;1.20;;;;;;;;;;5011027;28;20037;-57
2021/03/12 13:19:59;;;;;;;6.60;1.48;;;;;;;;;;4989884;28;20053;-58
2021/03/12 13:22:27;;;;;;;18.02;2.03;;;;;;;;;;5004134;28;20025;-57
2021/03/12 13:24:55;;;;;;;10.38;2.25;;;;;;;;;;4976030;28;20033;-57
2021/03/12 13:27:23;;;;;;;9.65;2.55;;;;;;;;;;4996816;28;20026;-57
2021/03/12 13:29:48;;;;;;;3.60;1.80;;;;;;;;;;4980191;28;20089;-57
2021/03/12 13:32:14;;;;;;;15.48;2.10;;;;;;;;;;4984244;28;20034;-57
2021/03/12 13:34:42;;;;;;;18.25;2.70;;;;;;;;;;4991973;28;20528;-57
2021/03/12 13:37:10;;;;;;;15.70;2.70;;;;;;;;;;5003062;28;20045;-58
2021/03/12 13:39:38;;;;;;;5.00;1.55;;;;;;;;;;4987522;28;20786;-57
2021/03/12 13:42:04;;;;;;;6.05;1.58;;;;;;;;;;5000023;28;20088;-57
2021/03/12 13:44:32;;;;;;;8.50;1.65;;;;;;;;;;5004296;28;20038;-58
2021/03/12 13:47:02;;;;;;;12.05;1.67;;;;;;;;;;4973380;28;20063;-57
2021/03/12 13:49:28;;;;;;;5.82;1.60;;;;;;;;;;5005872;28;20025;-58
2021/03/12 13:51:56;;;;;;;13.40;2.47;;;;;;;;;;5007412;28;20058;-57
2021/03/12 13:54:21;;;;;;;11.98;2.80;;;;;;;;;;4985206;28;21625;-58
2021/03/12 13:56:50;;;;;;;11.85;3.65;;;;;;;;;;5005288;28;20057;-58
2021/03/12 13:59:18;;;;;;;12.13;2.42;;;;;;;;;;5002377;28;20040;-57
2021/03/12 14:01:43;;;;;;;11.57;2.95;;;;;;;;;;4991112;28;20030;-58
2021/03/12 14:04:11;;;;;;;11.77;2.45;;;;;;;;;;5005371;28;20034;-57
2021/03/12 14:06:39;;;;;;;9.07;2.63;;;;;;;;;;4985000;28;20048;-57
2021/03/12 14:09:13;;;;;;;5.95;2.40;;;;;;;;;;5003062;28;20033;-57
2021/03/12 14:11:42;;;;;;;8.27;2.10;;;;;;;;;;5004692;28;20037;-56
2021/03/12 14:14:10;;;;;;;7.50;2.17;;;;;;;;;;5005033;28;20367;-57
2021/03/12 14:16:36;;;;;;;6.82;2.40;;;;;;;;;;4991033;28;20038;-57
2021/03/12 14:19:03;;;;;;;12.63;3.05;;;;;;;;;;4966106;28;20034;-58
2021/03/12 14:21:31;;;;;;;9.57;3.05;;;;;;;;;;5002337;28;21174;-57
2021/03/12 14:23:59;;;;;;;10.20;3.83;;;;;;;;;;4990715;28;20033;-58
2021/03/12 14:26:27;;;;;;;7.68;2.47;;;;;;;;;;4994093;28;20030;-57
2021/03/12 14:28:55;;;;;;;8.18;2.58;;;;;;;;;;4966910;28;20025;-58
2021/03/12 14:31:23;;;;;;;10.93;2.92;;;;;;;;;;4980828;28;20096;-57
2021/03/12 14:33:48;;;;;;;15.93;3.58;;;;;;;;;;5001552;28;20037;-57
2021/03/12 14:36:17;;;;;;;5.90;2.25;;;;;;;;;;5001349;28;20038;-58
2021/03/12 14:38:45;;;;;;;8.57;2.75;;;;;;;;;;4982514;28;20030;-59
2021/03/12 14:41:15;;;;;;;11.95;3.17;;;;;;;;;;4987884;28;20460;-58
2021/03/12 14:43:40;;;;;;;9.82;3.00;;;;;;;;;;5006359;28;20515;-59